sensor_id;sensor_type;location;lat;lon;timestamp;temperature;humidity
25074;DHT22;13066;52.042;5.648;2022-09-30T00:01:50;10.00;99.90
25074;DHT22;13066;52.042;5.648;2022-09-30T00:04:20;10.00;99.90
25074;DHT22;13066;52.042;5.648;2022-09-30T00:06:51;10.00;99.90
25074;DHT22;13066;52.042;5.648;2022-09-30T00:09:20;10.10;99.90
25074;DHT22;13066;52.042;5.648;2022-09-30T00:11:48;10.00;99.90
25074;DHT22;13066;52.042;5.648;2022-09-30T00:14:20;10.00;99.90
25074;DHT22;13066;52.042;5.648;2022-09-30T00:16:50;10.00;99.90
25074;DHT22;13066;52.042;5.648;2022-09-30T00:19:18;10.00;99.90
25074;DHT22;13066;52.042;5.648;2022-09-30T00:21:46;10.00;99.90
25074;DHT22;13066;52.042;5.648;2022-09-30T00:24:15;10.00;99.90
25074;DHT22;13066;52.042;5.648;2022-09-30T00:26:43;10.00;99.90
25074;DHT22;13066;52.042;5.648;2022-09-30T00:29:11;10.00;99.90
25074;DHT22;13066;52.042;5.648;2022-09-30T00:31:39;10.00;99.90
25074;DHT22;13066;52.042;5.648;2022-09-30T00:34:09;10.00;99.90
25074;DHT22;13066;52.042;5.648;2022-09-30T00:36:40;10.00;99.90
25074;DHT22;13066;52.042;5.648;2022-09-30T00:39:12;10.00;99.90
25074;DHT22;13066;52.042;5.648;2022-09-30T00:41:41;9.90;99.90
25074;DHT22;13066;52.042;5.648;2022-09-30T00:47:50;9.90;99.90
25074;DHT22;13066;52.042;5.648;2022-09-30T00:50:33;9.90;99.90
25074;DHT22;13066;52.042;5.648;2022-09-30T00:53:15;9.80;99.90
25074;DHT22;13066;52.042;5.648;2022-09-30T00:55:49;9.80;99.90
25074;DHT22;13066;52.042;5.648;2022-09-30T00:58:23;9.80;99.90
25074;DHT22;13066;52.042;5.648;2022-09-30T01:00:52;9.80;99.90
25074;DHT22;13066;52.042;5.648;2022-09-30T01:03:21;9.80;99.90
25074;DHT22;13066;52.042;5.648;2022-09-30T01:05:51;9.80;99.90
25074;DHT22;13066;52.042;5.648;2022-09-30T01:08:21;9.80;99.90
25074;DHT22;13066;52.042;5.648;2022-09-30T01:10:50;9.80;99.90
25074;DHT22;13066;52.042;5.648;2022-09-30T01:13:19;9.70;99.90
25074;DHT22;13066;52.042;5.648;2022-09-30T01:16:07;9.80;99.90
25074;DHT22;13066;52.042;5.648;2022-09-30T01:18:49;9.70;99.90
25074;DHT22;13066;52.042;5.648;2022-09-30T01:21:46;9.70;99.90
25074;DHT22;13066;52.042;5.648;2022-09-30T01:24:39;9.70;99.90
25074;DHT22;13066;52.042;5.648;2022-09-30T01:27:21;9.70;99.90
25074;DHT22;13066;52.042;5.648;2022-09-30T01:30:03;9.70;99.90
25074;DHT22;13066;52.042;5.648;2022-09-30T01:32:43;9.70;99.90
25074;DHT22;13066;52.042;5.648;2022-09-30T01:35:23;9.70;99.90
25074;DHT22;13066;52.042;5.648;2022-09-30T01:38:00;9.70;99.90
25074;DHT22;13066;52.042;5.648;2022-09-30T01:40:39;9.70;99.90
25074;DHT22;13066;52.042;5.648;2022-09-30T01:43:11;9.70;99.90
25074;DHT22;13066;52.042;5.648;2022-09-30T01:45:43;9.70;99.90
25074;DHT22;13066;52.042;5.648;2022-09-30T01:48:19;9.70;99.90
25074;DHT22;13066;52.042;5.648;2022-09-30T01:50:52;9.70;99.90
25074;DHT22;13066;52.042;5.648;2022-09-30T01:53:29;9.60;99.90
25074;DHT22;13066;52.042;5.648;2022-09-30T01:56:02;9.60;99.90
25074;DHT22;13066;52.042;5.648;2022-09-30T01:58:39;9.60;99.90
25074;DHT22;13066;52.042;5.648;2022-09-30T02:01:14;9.60;99.90
25074;DHT22;13066;52.042;5.648;2022-09-30T02:03:47;9.60;99.90
25074;DHT22;13066;52.042;5.648;2022-09-30T02:06:19;9.60;99.90
25074;DHT22;13066;52.042;5.648;2022-09-30T02:08:53;9.60;99.90
25074;DHT22;13066;52.042;5.648;2022-09-30T02:11:26;9.60;99.90
25074;DHT22;13066;52.042;5.648;2022-09-30T02:14:00;9.60;99.90
25074;DHT22;13066;52.042;5.648;2022-09-30T02:16:37;9.60;99.90
25074;DHT22;13066;52.042;5.648;2022-09-30T02:19:14;9.60;99.90
25074;DHT22;13066;52.042;5.648;2022-09-30T02:21:49;9.50;99.90
25074;DHT22;13066;52.042;5.648;2022-09-30T02:24:18;9.50;99.90
25074;DHT22;13066;52.042;5.648;2022-09-30T02:26:52;9.50;99.90
25074;DHT22;13066;52.042;5.648;2022-09-30T02:29:25;9.40;99.90
25074;DHT22;13066;52.042;5.648;2022-09-30T02:31:58;9.40;99.90
25074;DHT22;13066;52.042;5.648;2022-09-30T02:34:32;9.40;99.90
25074;DHT22;13066;52.042;5.648;2022-09-30T02:37:06;9.40;99.90
25074;DHT22;13066;52.042;5.648;2022-09-30T02:39:40;9.40;99.90
25074;DHT22;13066;52.042;5.648;2022-09-30T02:42:12;9.40;99.90
25074;DHT22;13066;52.042;5.648;2022-09-30T02:44:42;9.40;99.90
25074;DHT22;13066;52.042;5.648;2022-09-30T02:47:13;9.30;99.90
25074;DHT22;13066;52.042;5.648;2022-09-30T02:49:46;9.30;99.90
25074;DHT22;13066;52.042;5.648;2022-09-30T02:52:26;9.30;99.90
25074;DHT22;13066;52.042;5.648;2022-09-30T02:55:11;9.30;99.90
25074;DHT22;13066;52.042;5.648;2022-09-30T02:57:49;9.20;99.90
25074;DHT22;13066;52.042;5.648;2022-09-30T03:00:20;9.20;99.90
25074;DHT22;13066;52.042;5.648;2022-09-30T03:02:53;9.20;99.90
25074;DHT22;13066;52.042;5.648;2022-09-30T03:05:24;9.20;99.90
25074;DHT22;13066;52.042;5.648;2022-09-30T03:07:54;9.20;99.90
25074;DHT22;13066;52.042;5.648;2022-09-30T03:10:23;9.10;99.90
25074;DHT22;13066;52.042;5.648;2022-09-30T03:13:08;9.10;99.90
25074;DHT22;13066;52.042;5.648;2022-09-30T03:15:46;9.10;99.90
25074;DHT22;13066;52.042;5.648;2022-09-30T03:18:36;9.10;99.90
25074;DHT22;13066;52.042;5.648;2022-09-30T03:21:18;9.00;99.90
25074;DHT22;13066;52.042;5.648;2022-09-30T03:24:04;9.00;99.90
25074;DHT22;13066;52.042;5.648;2022-09-30T03:26:38;9.00;99.90
25074;DHT22;13066;52.042;5.648;2022-09-30T03:29:12;9.00;99.90
25074;DHT22;13066;52.042;5.648;2022-09-30T03:31:53;9.00;99.90
25074;DHT22;13066;52.042;5.648;2022-09-30T03:34:27;8.90;99.90
25074;DHT22;13066;52.042;5.648;2022-09-30T03:37:05;8.90;99.90
25074;DHT22;13066;52.042;5.648;2022-09-30T03:39:50;8.90;99.90
25074;DHT22;13066;52.042;5.648;2022-09-30T03:42:23;8.90;99.90
25074;DHT22;13066;52.042;5.648;2022-09-30T03:44:56;8.90;99.90
25074;DHT22;13066;52.042;5.648;2022-09-30T03:47:29;8.90;99.90
25074;DHT22;13066;52.042;5.648;2022-09-30T03:50:00;8.90;99.90
25074;DHT22;13066;52.042;5.648;2022-09-30T03:52:31;8.80;99.90
25074;DHT22;13066;52.042;5.648;2022-09-30T03:55:02;8.90;99.90
25074;DHT22;13066;52.042;5.648;2022-09-30T03:57:30;8.90;99.90
25074;DHT22;13066;52.042;5.648;2022-09-30T03:59:59;8.90;99.90
25074;DHT22;13066;52.042;5.648;2022-09-30T04:02:27;8.80;99.90
25074;DHT22;13066;52.042;5.648;2022-09-30T04:04:55;8.80;99.90
25074;DHT22;13066;52.042;5.648;2022-09-30T04:07:23;8.80;99.90
25074;DHT22;13066;52.042;5.648;2022-09-30T04:09:53;8.80;99.90
25074;DHT22;13066;52.042;5.648;2022-09-30T04:12:22;8.80;99.90
25074;DHT22;13066;52.042;5.648;2022-09-30T04:14:49;8.70;99.90
25074;DHT22;13066;52.042;5.648;2022-09-30T04:17:17;8.70;99.90
25074;DHT22;13066;52.042;5.648;2022-09-30T04:19:46;8.70;99.90
25074;DHT22;13066;52.042;5.648;2022-09-30T04:22:14;8.70;99.90
25074;DHT22;13066;52.042;5.648;2022-09-30T04:24:42;8.70;99.90
25074;DHT22;13066;52.042;5.648;2022-09-30T04:27:11;8.70;99.90
25074;DHT22;13066;52.042;5.648;2022-09-30T04:29:39;8.70;99.90
25074;DHT22;13066;52.042;5.648;2022-09-30T04:32:07;8.60;99.90
25074;DHT22;13066;52.042;5.648;2022-09-30T04:34:35;8.60;99.90
25074;DHT22;13066;52.042;5.648;2022-09-30T04:37:03;8.60;99.90
25074;DHT22;13066;52.042;5.648;2022-09-30T04:39:36;8.60;99.90
25074;DHT22;13066;52.042;5.648;2022-09-30T04:42:04;8.60;99.90
25074;DHT22;13066;52.042;5.648;2022-09-30T04:44:34;8.60;99.90
25074;DHT22;13066;52.042;5.648;2022-09-30T04:47:02;8.60;99.90
25074;DHT22;13066;52.042;5.648;2022-09-30T04:49:29;8.60;99.90
25074;DHT22;13066;52.042;5.648;2022-09-30T04:51:57;8.60;99.90
25074;DHT22;13066;52.042;5.648;2022-09-30T04:54:25;8.50;99.90
25074;DHT22;13066;52.042;5.648;2022-09-30T04:56:53;8.50;99.90
25074;DHT22;13066;52.042;5.648;2022-09-30T04:59:21;8.50;99.90
25074;DHT22;13066;52.042;5.648;2022-09-30T05:01:51;8.60;99.90
25074;DHT22;13066;52.042;5.648;2022-09-30T05:04:19;8.50;99.90
25074;DHT22;13066;52.042;5.648;2022-09-30T05:06:47;8.50;99.90
25074;DHT22;13066;52.042;5.648;2022-09-30T05:09:16;8.50;99.90
25074;DHT22;13066;52.042;5.648;2022-09-30T05:11:44;8.50;99.90
25074;DHT22;13066;52.042;5.648;2022-09-30T05:14:12;8.50;99.90
25074;DHT22;13066;52.042;5.648;2022-09-30T05:16:40;8.50;99.90
25074;DHT22;13066;52.042;5.648;2022-09-30T05:19:09;8.50;99.90
25074;DHT22;13066;52.042;5.648;2022-09-30T05:21:37;8.50;99.90
25074;DHT22;13066;52.042;5.648;2022-09-30T05:24:05;8.50;99.90
25074;DHT22;13066;52.042;5.648;2022-09-30T05:26:33;8.40;99.90
25074;DHT22;13066;52.042;5.648;2022-09-30T05:29:01;8.50;99.90
25074;DHT22;13066;52.042;5.648;2022-09-30T05:31:29;8.40;99.90
25074;DHT22;13066;52.042;5.648;2022-09-30T05:33:57;8.40;99.90
25074;DHT22;13066;52.042;5.648;2022-09-30T05:36:26;8.40;99.90
25074;DHT22;13066;52.042;5.648;2022-09-30T05:38:54;8.40;99.90
25074;DHT22;13066;52.042;5.648;2022-09-30T05:41:22;8.40;99.90
25074;DHT22;13066;52.042;5.648;2022-09-30T05:43:50;8.40;99.90
25074;DHT22;13066;52.042;5.648;2022-09-30T05:46:19;8.40;99.90
25074;DHT22;13066;52.042;5.648;2022-09-30T05:48:47;8.40;99.90
25074;DHT22;13066;52.042;5.648;2022-09-30T05:51:15;8.40;99.90
25074;DHT22;13066;52.042;5.648;2022-09-30T05:53:44;8.40;99.90
25074;DHT22;13066;52.042;5.648;2022-09-30T05:56:12;8.40;99.90
25074;DHT22;13066;52.042;5.648;2022-09-30T05:58:41;8.40;99.90
25074;DHT22;13066;52.042;5.648;2022-09-30T06:01:10;8.40;99.90
25074;DHT22;13066;52.042;5.648;2022-09-30T06:03:40;8.40;99.90
25074;DHT22;13066;52.042;5.648;2022-09-30T06:06:08;8.40;99.90
25074;DHT22;13066;52.042;5.648;2022-09-30T06:08:37;8.40;99.90
25074;DHT22;13066;52.042;5.648;2022-09-30T06:11:11;8.40;99.90
25074;DHT22;13066;52.042;5.648;2022-09-30T06:13:41;8.50;99.90
25074;DHT22;13066;52.042;5.648;2022-09-30T06:16:10;8.50;99.90
25074;DHT22;13066;52.042;5.648;2022-09-30T06:18:39;8.50;99.90
25074;DHT22;13066;52.042;5.648;2022-09-30T06:21:09;8.50;99.90
25074;DHT22;13066;52.042;5.648;2022-09-30T06:23:38;8.50;99.90
25074;DHT22;13066;52.042;5.648;2022-09-30T06:26:08;8.50;99.90
25074;DHT22;13066;52.042;5.648;2022-09-30T06:28:39;8.60;99.90
25074;DHT22;13066;52.042;5.648;2022-09-30T06:31:07;8.60;99.90
25074;DHT22;13066;52.042;5.648;2022-09-30T06:33:35;8.60;99.90
25074;DHT22;13066;52.042;5.648;2022-09-30T06:36:03;8.70;99.90
25074;DHT22;13066;52.042;5.648;2022-09-30T06:38:33;8.70;99.90
25074;DHT22;13066;52.042;5.648;2022-09-30T06:41:03;8.70;99.90
25074;DHT22;13066;52.042;5.648;2022-09-30T06:43:31;8.80;99.90
25074;DHT22;13066;52.042;5.648;2022-09-30T06:46:21;8.80;99.90
25074;DHT22;13066;52.042;5.648;2022-09-30T06:48:57;8.80;99.90
25074;DHT22;13066;52.042;5.648;2022-09-30T06:51:45;8.90;99.90
25074;DHT22;13066;52.042;5.648;2022-09-30T06:54:13;8.90;99.90
25074;DHT22;13066;52.042;5.648;2022-09-30T06:56:41;8.90;99.90
25074;DHT22;13066;52.042;5.648;2022-09-30T06:59:10;9.00;99.90
25074;DHT22;13066;52.042;5.648;2022-09-30T07:01:39;9.00;99.90
25074;DHT22;13066;52.042;5.648;2022-09-30T07:04:09;9.10;99.90
25074;DHT22;13066;52.042;5.648;2022-09-30T07:06:37;9.10;99.90
25074;DHT22;13066;52.042;5.648;2022-09-30T07:09:06;9.20;99.90
25074;DHT22;13066;52.042;5.648;2022-09-30T07:11:34;9.20;99.90
25074;DHT22;13066;52.042;5.648;2022-09-30T07:14:03;9.30;99.90
25074;DHT22;13066;52.042;5.648;2022-09-30T07:16:31;9.30;99.90
25074;DHT22;13066;52.042;5.648;2022-09-30T07:19:01;9.40;99.90
25074;DHT22;13066;52.042;5.648;2022-09-30T07:21:30;9.40;99.90
25074;DHT22;13066;52.042;5.648;2022-09-30T07:23:58;9.50;99.90
25074;DHT22;13066;52.042;5.648;2022-09-30T07:26:27;9.50;99.90
25074;DHT22;13066;52.042;5.648;2022-09-30T07:28:55;9.50;99.90
25074;DHT22;13066;52.042;5.648;2022-09-30T07:31:26;9.60;99.90
25074;DHT22;13066;52.042;5.648;2022-09-30T07:34:01;9.70;99.90
25074;DHT22;13066;52.042;5.648;2022-09-30T07:36:30;9.70;99.90
25074;DHT22;13066;52.042;5.648;2022-09-30T07:39:00;9.70;99.90
25074;DHT22;13066;52.042;5.648;2022-09-30T07:41:33;9.80;99.90
25074;DHT22;13066;52.042;5.648;2022-09-30T07:44:03;9.80;99.90
25074;DHT22;13066;52.042;5.648;2022-09-30T07:46:34;9.90;99.90
25074;DHT22;13066;52.042;5.648;2022-09-30T07:49:07;10.00;99.90
25074;DHT22;13066;52.042;5.648;2022-09-30T07:51:40;10.00;99.90
25074;DHT22;13066;52.042;5.648;2022-09-30T07:54:12;10.10;99.90
25074;DHT22;13066;52.042;5.648;2022-09-30T07:56:41;10.10;99.90
25074;DHT22;13066;52.042;5.648;2022-09-30T07:59:31;10.10;99.90
25074;DHT22;13066;52.042;5.648;2022-09-30T08:01:59;10.20;99.90
25074;DHT22;13066;52.042;5.648;2022-09-30T08:04:29;10.30;99.90
25074;DHT22;13066;52.042;5.648;2022-09-30T08:06:58;10.30;99.90
25074;DHT22;13066;52.042;5.648;2022-09-30T08:09:28;10.40;99.90
25074;DHT22;13066;52.042;5.648;2022-09-30T08:11:57;10.40;99.90
25074;DHT22;13066;52.042;5.648;2022-09-30T08:14:26;10.40;99.90
25074;DHT22;13066;52.042;5.648;2022-09-30T08:16:54;10.50;99.90
25074;DHT22;13066;52.042;5.648;2022-09-30T08:19:25;10.60;99.90
25074;DHT22;13066;52.042;5.648;2022-09-30T08:21:55;10.70;99.90
25074;DHT22;13066;52.042;5.648;2022-09-30T08:24:24;10.70;99.90
25074;DHT22;13066;52.042;5.648;2022-09-30T08:26:53;10.80;99.90
25074;DHT22;13066;52.042;5.648;2022-09-30T08:29:21;10.80;99.90
25074;DHT22;13066;52.042;5.648;2022-09-30T08:32:09;10.90;99.90
25074;DHT22;13066;52.042;5.648;2022-09-30T08:34:37;10.90;99.90
25074;DHT22;13066;52.042;5.648;2022-09-30T08:37:06;11.00;99.90
25074;DHT22;13066;52.042;5.648;2022-09-30T08:39:36;11.10;99.90
25074;DHT22;13066;52.042;5.648;2022-09-30T08:42:15;11.10;99.90
25074;DHT22;13066;52.042;5.648;2022-09-30T08:45:12;11.20;99.90
25074;DHT22;13066;52.042;5.648;2022-09-30T08:47:47;11.20;99.90
25074;DHT22;13066;52.042;5.648;2022-09-30T08:50:22;11.30;99.90
25074;DHT22;13066;52.042;5.648;2022-09-30T08:52:58;11.30;99.90
25074;DHT22;13066;52.042;5.648;2022-09-30T08:55:40;11.40;99.90
25074;DHT22;13066;52.042;5.648;2022-09-30T08:58:24;11.50;99.90
25074;DHT22;13066;52.042;5.648;2022-09-30T09:00:56;11.60;99.90
25074;DHT22;13066;52.042;5.648;2022-09-30T09:03:28;11.60;99.90
25074;DHT22;13066;52.042;5.648;2022-09-30T09:06:14;11.70;99.90
25074;DHT22;13066;52.042;5.648;2022-09-30T09:08:57;11.80;99.90
25074;DHT22;13066;52.042;5.648;2022-09-30T09:11:37;11.90;99.90
25074;DHT22;13066;52.042;5.648;2022-09-30T09:14:20;11.90;99.90
25074;DHT22;13066;52.042;5.648;2022-09-30T09:17:02;12.00;99.90
25074;DHT22;13066;52.042;5.648;2022-09-30T09:19:41;12.10;99.90
25074;DHT22;13066;52.042;5.648;2022-09-30T09:22:09;12.10;99.90
25074;DHT22;13066;52.042;5.648;2022-09-30T09:24:41;12.20;99.90
25074;DHT22;13066;52.042;5.648;2022-09-30T09:27:17;12.30;99.90
25074;DHT22;13066;52.042;5.648;2022-09-30T09:29:52;12.40;99.90
25074;DHT22;13066;52.042;5.648;2022-09-30T09:32:26;12.50;99.90
25074;DHT22;13066;52.042;5.648;2022-09-30T09:34:59;12.50;99.90
25074;DHT22;13066;52.042;5.648;2022-09-30T09:37:35;12.60;99.90
25074;DHT22;13066;52.042;5.648;2022-09-30T09:40:32;12.70;99.90
25074;DHT22;13066;52.042;5.648;2022-09-30T09:43:08;12.80;99.90
25074;DHT22;13066;52.042;5.648;2022-09-30T09:45:50;12.80;99.90
25074;DHT22;13066;52.042;5.648;2022-09-30T09:48:20;12.90;99.90
25074;DHT22;13066;52.042;5.648;2022-09-30T09:50:54;12.90;99.90
25074;DHT22;13066;52.042;5.648;2022-09-30T09:53:41;13.00;99.90
25074;DHT22;13066;52.042;5.648;2022-09-30T09:56:15;13.10;99.90
25074;DHT22;13066;52.042;5.648;2022-09-30T10:01:31;13.30;99.90
25074;DHT22;13066;52.042;5.648;2022-09-30T10:04:11;13.30;99.90
25074;DHT22;13066;52.042;5.648;2022-09-30T10:06:46;13.30;99.90
25074;DHT22;13066;52.042;5.648;2022-09-30T10:09:29;13.40;99.90
25074;DHT22;13066;52.042;5.648;2022-09-30T10:12:20;13.50;99.90
25074;DHT22;13066;52.042;5.648;2022-09-30T10:14:58;13.60;99.90
25074;DHT22;13066;52.042;5.648;2022-09-30T10:17:28;13.60;99.90
25074;DHT22;13066;52.042;5.648;2022-09-30T10:20:00;13.70;99.90
25074;DHT22;13066;52.042;5.648;2022-09-30T10:22:31;13.80;99.90
25074;DHT22;13066;52.042;5.648;2022-09-30T10:25:09;13.80;99.90
25074;DHT22;13066;52.042;5.648;2022-09-30T10:27:49;13.90;99.90
25074;DHT22;13066;52.042;5.648;2022-09-30T10:30:36;14.00;99.90
25074;DHT22;13066;52.042;5.648;2022-09-30T10:33:13;14.10;99.90
25074;DHT22;13066;52.042;5.648;2022-09-30T10:35:52;14.10;99.90
25074;DHT22;13066;52.042;5.648;2022-09-30T10:38:24;14.20;99.90
25074;DHT22;13066;52.042;5.648;2022-09-30T10:40:55;14.30;99.90
25074;DHT22;13066;52.042;5.648;2022-09-30T10:43:29;14.30;99.90
25074;DHT22;13066;52.042;5.648;2022-09-30T10:45:59;14.40;99.90
25074;DHT22;13066;52.042;5.648;2022-09-30T10:48:50;14.50;99.90
25074;DHT22;13066;52.042;5.648;2022-09-30T10:51:24;14.50;99.90
25074;DHT22;13066;52.042;5.648;2022-09-30T10:53:53;14.60;99.90
25074;DHT22;13066;52.042;5.648;2022-09-30T10:56:32;14.70;99.90
25074;DHT22;13066;52.042;5.648;2022-09-30T10:59:02;14.80;99.90
25074;DHT22;13066;52.042;5.648;2022-09-30T11:01:34;14.80;99.60
25074;DHT22;13066;52.042;5.648;2022-09-30T11:04:06;14.90;99.50
25074;DHT22;13066;52.042;5.648;2022-09-30T11:06:38;14.90;99.10
25074;DHT22;13066;52.042;5.648;2022-09-30T11:09:11;14.90;98.80
25074;DHT22;13066;52.042;5.648;2022-09-30T11:11:43;15.00;98.80
25074;DHT22;13066;52.042;5.648;2022-09-30T11:14:22;15.10;98.70
25074;DHT22;13066;52.042;5.648;2022-09-30T11:17:03;15.10;98.40
25074;DHT22;13066;52.042;5.648;2022-09-30T11:19:37;15.20;98.10
25074;DHT22;13066;52.042;5.648;2022-09-30T11:22:21;15.30;97.80
25074;DHT22;13066;52.042;5.648;2022-09-30T11:24:53;15.30;97.20
25074;DHT22;13066;52.042;5.648;2022-09-30T11:27:29;15.40;96.90
25074;DHT22;13066;52.042;5.648;2022-09-30T11:30:07;15.40;96.70
25074;DHT22;13066;52.042;5.648;2022-09-30T11:32:48;15.50;96.60
25074;DHT22;13066;52.042;5.648;2022-09-30T11:35:45;15.50;96.50
25074;DHT22;13066;52.042;5.648;2022-09-30T11:38:33;15.60;96.40
25074;DHT22;13066;52.042;5.648;2022-09-30T11:41:09;15.70;96.30
25074;DHT22;13066;52.042;5.648;2022-09-30T11:43:44;15.70;96.20
25074;DHT22;13066;52.042;5.648;2022-09-30T11:46:41;15.80;95.90
25074;DHT22;13066;52.042;5.648;2022-09-30T11:49:33;15.80;95.60
25074;DHT22;13066;52.042;5.648;2022-09-30T11:52:09;15.90;95.50
25074;DHT22;13066;52.042;5.648;2022-09-30T11:54:51;16.00;95.60
25074;DHT22;13066;52.042;5.648;2022-09-30T11:57:27;16.00;95.40
25074;DHT22;13066;52.042;5.648;2022-09-30T12:00:00;16.10;95.40
25074;DHT22;13066;52.042;5.648;2022-09-30T12:02:34;16.10;95.30
25074;DHT22;13066;52.042;5.648;2022-09-30T12:05:06;16.20;95.30
25074;DHT22;13066;52.042;5.648;2022-09-30T12:07:41;16.30;95.40
25074;DHT22;13066;52.042;5.648;2022-09-30T12:10:18;16.30;95.20
25074;DHT22;13066;52.042;5.648;2022-09-30T12:12:50;16.40;95.10
25074;DHT22;13066;52.042;5.648;2022-09-30T12:15:22;16.50;94.90
25074;DHT22;13066;52.042;5.648;2022-09-30T12:17:56;16.50;94.70
25074;DHT22;13066;52.042;5.648;2022-09-30T12:20:26;16.70;94.80
25074;DHT22;13066;52.042;5.648;2022-09-30T12:22:59;16.70;94.60
25074;DHT22;13066;52.042;5.648;2022-09-30T12:25:31;16.60;94.30
25074;DHT22;13066;52.042;5.648;2022-09-30T12:28:04;16.70;94.10
25074;DHT22;13066;52.042;5.648;2022-09-30T12:30:48;16.70;94.00
25074;DHT22;13066;52.042;5.648;2022-09-30T12:33:39;16.70;94.00
25074;DHT22;13066;52.042;5.648;2022-09-30T12:36:25;16.70;94.00
25074;DHT22;13066;52.042;5.648;2022-09-30T12:39:19;16.80;93.60
25074;DHT22;13066;52.042;5.648;2022-09-30T12:42:19;16.90;93.50
25074;DHT22;13066;52.042;5.648;2022-09-30T12:45:08;17.00;93.30
25074;DHT22;13066;52.042;5.648;2022-09-30T12:47:45;17.00;92.90
25074;DHT22;13066;52.042;5.648;2022-09-30T12:50:18;17.00;92.70
25074;DHT22;13066;52.042;5.648;2022-09-30T12:52:47;17.00;92.60
25074;DHT22;13066;52.042;5.648;2022-09-30T12:55:22;17.00;92.70
25074;DHT22;13066;52.042;5.648;2022-09-30T12:57:54;17.10;92.80
25074;DHT22;13066;52.042;5.648;2022-09-30T13:00:26;17.10;92.70
25074;DHT22;13066;52.042;5.648;2022-09-30T13:02:58;17.20;92.70
25074;DHT22;13066;52.042;5.648;2022-09-30T13:05:59;17.20;92.60
25074;DHT22;13066;52.042;5.648;2022-09-30T13:08:46;17.30;92.40
25074;DHT22;13066;52.042;5.648;2022-09-30T13:11:32;17.40;91.80
25074;DHT22;13066;52.042;5.648;2022-09-30T13:14:13;17.40;91.50
25074;DHT22;13066;52.042;5.648;2022-09-30T13:19:43;17.40;91.50
25074;DHT22;13066;52.042;5.648;2022-09-30T13:25:20;17.40;91.50
25074;DHT22;13066;52.042;5.648;2022-09-30T13:27:50;17.40;91.70
25074;DHT22;13066;52.042;5.648;2022-09-30T13:30:33;17.40;91.60
25074;DHT22;13066;52.042;5.648;2022-09-30T13:33:28;17.50;91.40
25074;DHT22;13066;52.042;5.648;2022-09-30T13:36:04;17.60;91.60
25074;DHT22;13066;52.042;5.648;2022-09-30T13:38:35;17.60;91.00
25074;DHT22;13066;52.042;5.648;2022-09-30T13:41:13;17.60;91.10
25074;DHT22;13066;52.042;5.648;2022-09-30T13:43:44;17.70;90.80
25074;DHT22;13066;52.042;5.648;2022-09-30T13:46:24;17.70;90.40
25074;DHT22;13066;52.042;5.648;2022-09-30T13:49:00;17.70;90.50
25074;DHT22;13066;52.042;5.648;2022-09-30T13:51:30;17.80;90.60
25074;DHT22;13066;52.042;5.648;2022-09-30T13:54:04;17.80;90.40
25074;DHT22;13066;52.042;5.648;2022-09-30T13:56:35;17.80;90.30
25074;DHT22;13066;52.042;5.648;2022-09-30T13:59:33;17.80;90.30
25074;DHT22;13066;52.042;5.648;2022-09-30T14:02:39;17.80;90.20
25074;DHT22;13066;52.042;5.648;2022-09-30T14:05:26;17.80;90.40
25074;DHT22;13066;52.042;5.648;2022-09-30T14:11:06;17.60;90.70
25074;DHT22;13066;52.042;5.648;2022-09-30T14:13:45;17.60;90.80
25074;DHT22;13066;52.042;5.648;2022-09-30T14:16:55;17.60;90.80
25074;DHT22;13066;52.042;5.648;2022-09-30T14:19:42;17.60;90.80
25074;DHT22;13066;52.042;5.648;2022-09-30T14:22:13;17.60;91.00
25074;DHT22;13066;52.042;5.648;2022-09-30T14:24:42;17.50;91.20
25074;DHT22;13066;52.042;5.648;2022-09-30T14:30:26;17.50;91.60
25074;DHT22;13066;52.042;5.648;2022-09-30T14:32:56;17.50;91.80
25074;DHT22;13066;52.042;5.648;2022-09-30T14:35:27;17.50;92.10
25074;DHT22;13066;52.042;5.648;2022-09-30T14:37:59;17.50;92.20
25074;DHT22;13066;52.042;5.648;2022-09-30T14:40:29;17.60;92.30
25074;DHT22;13066;52.042;5.648;2022-09-30T14:42:59;17.60;92.30
25074;DHT22;13066;52.042;5.648;2022-09-30T14:45:31;17.60;92.30
25074;DHT22;13066;52.042;5.648;2022-09-30T14:48:06;17.60;92.40
25074;DHT22;13066;52.042;5.648;2022-09-30T14:50:38;17.70;92.40
25074;DHT22;13066;52.042;5.648;2022-09-30T14:53:24;17.70;92.40
25074;DHT22;13066;52.042;5.648;2022-09-30T14:55:52;17.70;92.00
25074;DHT22;13066;52.042;5.648;2022-09-30T14:58:23;17.70;92.20
25074;DHT22;13066;52.042;5.648;2022-09-30T15:01:02;17.70;91.80
25074;DHT22;13066;52.042;5.648;2022-09-30T15:03:33;17.70;91.60
25074;DHT22;13066;52.042;5.648;2022-09-30T15:06:05;17.70;91.50
25074;DHT22;13066;52.042;5.648;2022-09-30T15:08:44;17.70;91.30
25074;DHT22;13066;52.042;5.648;2022-09-30T15:11:17;17.70;91.30
25074;DHT22;13066;52.042;5.648;2022-09-30T15:13:46;17.70;91.20
25074;DHT22;13066;52.042;5.648;2022-09-30T15:16:22;17.80;91.20
25074;DHT22;13066;52.042;5.648;2022-09-30T15:18:51;17.80;91.30
25074;DHT22;13066;52.042;5.648;2022-09-30T15:21:21;17.80;91.30
25074;DHT22;13066;52.042;5.648;2022-09-30T15:23:54;17.80;91.20
25074;DHT22;13066;52.042;5.648;2022-09-30T15:26:26;17.90;91.10
25074;DHT22;13066;52.042;5.648;2022-09-30T15:28:55;17.80;91.00
25074;DHT22;13066;52.042;5.648;2022-09-30T15:31:24;17.80;91.10
25074;DHT22;13066;52.042;5.648;2022-09-30T15:34:04;17.90;91.60
25074;DHT22;13066;52.042;5.648;2022-09-30T15:36:34;17.90;91.00
25074;DHT22;13066;52.042;5.648;2022-09-30T15:39:05;17.90;90.90
25074;DHT22;13066;52.042;5.648;2022-09-30T15:41:40;18.00;90.80
25074;DHT22;13066;52.042;5.648;2022-09-30T15:44:15;18.00;90.70
25074;DHT22;13066;52.042;5.648;2022-09-30T15:47:00;18.00;90.60
25074;DHT22;13066;52.042;5.648;2022-09-30T15:49:30;18.10;90.50
25074;DHT22;13066;52.042;5.648;2022-09-30T15:52:25;18.00;90.40
25074;DHT22;13066;52.042;5.648;2022-09-30T15:54:56;18.00;90.30
25074;DHT22;13066;52.042;5.648;2022-09-30T15:57:51;18.00;90.30
25074;DHT22;13066;52.042;5.648;2022-09-30T16:00:29;17.90;90.20
25074;DHT22;13066;52.042;5.648;2022-09-30T16:03:22;17.90;90.40
25074;DHT22;13066;52.042;5.648;2022-09-30T16:05:51;17.70;90.60
25074;DHT22;13066;52.042;5.648;2022-09-30T16:08:23;17.70;90.70
25074;DHT22;13066;52.042;5.648;2022-09-30T16:10:56;17.60;90.60
25074;DHT22;13066;52.042;5.648;2022-09-30T16:13:27;17.50;90.50
25074;DHT22;13066;52.042;5.648;2022-09-30T16:15:56;17.50;90.40
25074;DHT22;13066;52.042;5.648;2022-09-30T16:18:26;17.40;90.30
25074;DHT22;13066;52.042;5.648;2022-09-30T16:21:02;17.40;90.40
25074;DHT22;13066;52.042;5.648;2022-09-30T16:23:35;17.30;90.40
25074;DHT22;13066;52.042;5.648;2022-09-30T16:26:18;17.30;90.70
25074;DHT22;13066;52.042;5.648;2022-09-30T16:28:46;17.20;91.10
25074;DHT22;13066;52.042;5.648;2022-09-30T16:31:14;17.10;90.90
25074;DHT22;13066;52.042;5.648;2022-09-30T16:33:43;17.00;91.00
25074;DHT22;13066;52.042;5.648;2022-09-30T16:36:12;17.00;91.20
25074;DHT22;13066;52.042;5.648;2022-09-30T16:38:40;17.00;91.30
25074;DHT22;13066;52.042;5.648;2022-09-30T16:41:10;16.90;91.30